createdAt,value
2022-08-05T08:35:06.972Z,22.00
2022-08-05T08:37:06.936Z,21.88
2022-08-05T08:45:36.258Z,22.28
2022-08-05T08:46:36.233Z,22.30
2022-08-05T08:48:06.003Z,22.45
2022-08-05T08:49:03.032Z,22.54
2022-08-05T08:50:22.760Z,22.51
2022-08-05T08:51:04.126Z,22.42
2022-08-05T08:52:04.052Z,22.47
2022-08-05T08:52:36.141Z,22.45
2022-08-05T08:53:36.133Z,22.42
2022-08-05T08:54:36.724Z,22.51
2022-08-05T08:56:05.038Z,22.43
2022-08-05T08:56:36.070Z,22.47
2022-08-05T08:57:48.378Z,22.57
2022-08-05T08:58:43.005Z,22.45
2022-08-05T08:59:36.031Z,22.39
2022-08-05T09:00:36.083Z,22.42
2022-08-05T09:01:36.028Z,22.68
2022-08-05T09:02:35.997Z,22.61
2022-08-05T09:03:39.463Z,22.77
2022-08-05T09:04:35.977Z,22.57
2022-08-05T09:05:38.468Z,22.47
2022-08-05T09:06:36.351Z,22.45
2022-08-05T09:07:40.030Z,22.57
2022-08-05T09:08:35.928Z,22.45
2022-08-05T09:09:35.907Z,22.61
2022-08-05T09:10:35.891Z,22.91
2022-08-05T09:11:51.638Z,22.79
2022-08-05T09:12:35.913Z,22.72
2022-08-05T09:14:01.189Z,22.65
2022-08-05T09:14:58.472Z,22.70
2022-08-05T09:15:37.024Z,22.54
2022-08-05T09:16:35.960Z,22.43
2022-08-05T09:17:40.684Z,22.42
2022-08-05T09:18:38.969Z,22.25
2022-08-05T09:19:36.806Z,22.33
2022-08-05T09:20:37.201Z,22.46
2022-08-05T09:22:24.785Z,22.42
2022-08-05T09:22:36.059Z,22.33
2022-08-05T09:23:37.478Z,22.20
2022-08-05T09:24:35.699Z,22.05
2022-08-05T09:26:01.630Z,22.27
2022-08-05T09:26:35.669Z,22.54
2022-08-05T09:28:05.664Z,22.62
2022-08-05T09:28:35.655Z,22.46
2022-08-05T09:29:35.630Z,22.31
2022-08-05T09:30:35.622Z,22.12
2022-08-05T09:32:41.248Z,22.54
2022-08-05T09:32:51.177Z,22.14
2022-08-05T09:33:36.351Z,22.24
2022-08-05T09:34:35.644Z,22.18
2022-08-05T09:35:35.538Z,22.02
2022-08-05T09:36:35.551Z,22.25
2022-08-05T09:38:16.440Z,22.47
2022-08-05T09:38:35.511Z,22.45
2022-08-05T09:39:41.632Z,22.40
2022-08-05T09:40:35.526Z,22.33
2022-08-05T09:41:39.027Z,22.17
2022-08-05T09:42:35.547Z,22.37
2022-08-05T09:43:41.104Z,22.21
2022-08-05T09:44:35.534Z,22.21
2022-08-05T09:46:07.105Z,22.30
2022-08-05T09:46:35.403Z,22.52
2022-08-05T09:56:13.621Z,21.71
2022-08-05T09:57:23.468Z,21.68
2022-08-05T09:58:12.912Z,21.91
2022-08-05T09:59:17.252Z,21.79
2022-08-05T10:00:12.879Z,21.91
2022-08-05T10:01:13.312Z,21.92
2022-08-05T10:02:12.874Z,21.86
2022-08-05T10:03:12.848Z,21.86
2022-08-05T10:08:53.778Z,21.46
2022-08-05T10:09:45.112Z,21.62
2022-08-05T10:10:44.177Z,21.67
2022-08-05T10:11:44.145Z,21.59
2022-08-05T10:16:25.250Z,21.68
2022-08-05T10:17:37.705Z,21.86
2022-08-05T10:18:25.210Z,22.06
2022-08-05T10:19:46.181Z,22.40
2022-08-05T10:20:25.186Z,22.58
2022-08-05T10:21:25.186Z,22.46
2022-08-05T10:22:29.522Z,22.45
2022-08-05T12:06:10.328Z,20.39
2022-08-05T12:07:06.469Z,20.41
2022-08-05T12:08:10.131Z,20.41
2022-08-05T12:09:06.436Z,20.43
2022-08-05T12:10:09.671Z,20.59
2022-08-05T12:11:06.483Z,20.89
2022-08-05T12:12:06.375Z,21.14
2022-08-05T12:13:15.985Z,21.37
2022-08-05T12:14:06.409Z,21.28
2022-08-05T12:15:06.331Z,21.54
2022-08-05T12:16:15.028Z,21.98
2022-08-05T12:18:00.814Z,21.80
2022-08-05T12:18:10.450Z,22.21
2022-08-05T12:19:08.212Z,22.51
2022-08-05T12:20:27.852Z,22.22
2022-08-05T12:21:06.247Z,21.99
2022-08-05T12:22:09.490Z,22.09
2022-08-05T12:23:06.221Z,22.22
2022-08-05T12:24:07.183Z,22.02
2022-08-05T12:25:06.177Z,21.68
2022-08-05T12:26:06.168Z,21.71
2022-08-05T12:27:09.865Z,22.20
2022-08-05T12:28:06.154Z,22.07
2022-08-05T12:29:09.882Z,22.45
2022-08-05T12:30:06.148Z,22.30
2022-08-05T12:31:06.113Z,22.83
2022-08-05T12:32:07.497Z,22.92
2022-08-05T12:33:07.410Z,22.39
2022-08-05T12:34:06.050Z,22.46
2022-08-05T12:35:06.036Z,23.12
2022-08-05T12:36:08.573Z,23.25
2022-08-05T12:37:06.019Z,23.27
2022-08-05T12:38:06.016Z,22.90
2022-08-05T12:39:07.019Z,22.54
2022-08-05T12:40:10.965Z,23.25
2022-08-05T12:41:09.707Z,23.09
2022-08-05T12:42:05.955Z,22.60
2022-08-05T12:43:05.954Z,22.10
2022-08-05T12:44:05.913Z,22.73
2022-08-05T12:45:08.916Z,22.51
2022-08-05T12:46:05.887Z,22.80
2022-08-05T12:47:05.883Z,22.85
2022-08-05T12:48:17.595Z,23.00
2022-08-05T12:49:13.931Z,23.33
2022-08-05T12:50:06.454Z,22.97
2022-08-05T12:51:05.824Z,23.65
2022-08-05T12:52:13.746Z,24.60
2022-08-05T12:53:05.812Z,25.80
2022-08-05T12:54:16.758Z,25.27
2022-08-05T12:55:05.782Z,24.87
2022-08-05T12:56:05.771Z,24.37
2022-08-05T12:57:09.517Z,24.08
2022-08-05T12:58:52.494Z,24.15
2022-08-05T12:59:10.801Z,23.84
2022-08-05T13:01:57.891Z,24.21
2022-08-05T13:02:03.287Z,24.65
2022-08-05T13:02:07.199Z,24.87
2022-08-05T13:03:05.680Z,25.57
2022-08-05T13:04:07.588Z,25.00
2022-08-05T13:05:05.645Z,25.13
2022-08-05T13:06:05.635Z,25.18
2022-08-05T13:07:05.626Z,24.93
2022-08-05T13:08:05.985Z,24.52
2022-08-05T13:09:05.603Z,24.91
2022-08-05T13:10:05.589Z,24.91
2022-08-05T13:11:05.573Z,24.27
2022-08-05T13:12:05.569Z,23.97
2022-08-05T13:13:05.563Z,24.08
2022-08-05T13:14:07.678Z,24.83
2022-08-05T13:15:06.868Z,25.18
2022-08-05T13:16:05.507Z,25.30
2022-08-05T13:17:05.498Z,25.79
2022-08-05T13:18:05.498Z,25.77
2022-08-05T13:19:05.475Z,26.43
2022-08-05T13:20:05.462Z,26.48
2022-08-05T13:21:05.459Z,26.44
2022-08-05T13:22:05.449Z,26.45
2022-08-05T13:23:07.141Z,26.92
2022-08-05T13:24:05.429Z,27.41
2022-08-05T13:25:07.883Z,26.20
2022-08-05T13:26:05.402Z,26.25
2022-08-05T13:27:05.393Z,26.67
2022-08-05T13:28:05.397Z,26.62
2022-08-05T13:29:05.462Z,26.85
2022-08-05T13:30:35.459Z,26.20
2022-08-05T13:31:14.091Z,26.33
2022-08-05T13:32:05.659Z,25.79
2022-08-05T13:33:05.344Z,25.14
2022-08-05T13:34:21.874Z,25.05
2022-08-05T13:35:05.301Z,24.58
2022-08-05T13:36:05.402Z,24.31
2022-08-05T13:37:05.281Z,24.42
2022-08-05T13:38:06.031Z,24.06
2022-08-05T13:39:08.506Z,24.55
2022-08-05T13:40:15.146Z,25.21
2022-08-05T13:41:05.910Z,25.57
2022-08-05T13:42:05.236Z,26.10
2022-08-05T13:43:05.229Z,25.91
2022-08-05T13:44:05.215Z,26.84
2022-08-05T13:45:05.207Z,27.09
2022-08-05T13:46:05.189Z,26.77
2022-08-05T13:47:09.011Z,26.80
2022-08-05T13:48:09.223Z,26.55
2022-08-05T13:49:05.368Z,26.54
2022-08-05T13:50:08.518Z,26.58
2022-08-05T13:51:05.148Z,27.03
2022-08-05T13:52:05.131Z,27.67
2022-08-05T13:53:09.078Z,27.70
2022-08-05T13:54:11.795Z,27.41
2022-08-05T13:55:07.464Z,27.19
2022-08-05T13:56:05.087Z,27.88
2022-08-05T13:57:05.090Z,27.63
2022-08-05T13:58:05.073Z,27.43
2022-08-05T13:59:06.030Z,27.21
2022-08-05T14:00:05.049Z,27.75
2022-08-05T14:01:05.059Z,27.85
2022-08-05T14:02:05.031Z,27.03
2022-08-05T14:03:05.123Z,25.92
2022-08-05T14:04:05.013Z,25.30
2022-08-05T14:05:05.008Z,24.95
2022-08-05T14:06:26.836Z,25.00
2022-08-05T14:07:25.000Z,25.27
2022-08-05T14:08:20.451Z,25.05
2022-08-05T14:09:08.237Z,24.98
2022-08-05T14:10:04.959Z,24.91
2022-08-05T14:11:20.237Z,24.57
2022-08-05T14:13:32.256Z,24.55
2022-08-05T14:14:33.778Z,24.91
2022-08-05T14:16:08.066Z,24.78
2022-08-05T14:16:31.485Z,25.64
2022-08-05T14:17:31.609Z,25.70
2022-08-05T14:18:31.491Z,26.45
2022-08-05T14:19:31.452Z,26.91
2022-08-05T14:20:31.442Z,26.45
2022-08-05T14:22:09.974Z,25.54
2022-08-05T14:22:34.282Z,24.96
2022-08-05T14:23:31.893Z,25.30
2022-08-05T14:24:31.411Z,25.24
2022-08-05T14:25:31.389Z,25.42
2022-08-05T14:26:35.813Z,25.57
2022-08-05T14:27:31.378Z,25.46
2022-08-05T14:28:31.430Z,25.90
2022-08-05T14:29:31.456Z,25.64
2022-08-05T14:30:31.342Z,26.25
2022-08-05T14:32:03.026Z,26.29
2022-08-05T14:32:31.483Z,26.37
2022-08-05T14:33:32.687Z,26.17
2022-08-05T14:34:35.198Z,26.13
2022-08-05T14:35:49.964Z,25.10
2022-08-05T14:36:31.291Z,25.27
2022-08-05T14:37:45.558Z,25.39
2022-08-05T14:38:34.198Z,25.36
2022-08-05T14:39:31.302Z,25.51
2022-08-05T14:40:31.242Z,25.67
2022-08-05T14:41:31.247Z,26.12
2022-08-05T14:42:31.418Z,26.06
2022-08-05T14:44:02.551Z,26.44
2022-08-05T14:44:31.213Z,26.55
2022-08-05T14:45:31.196Z,26.58
2022-08-05T14:46:31.195Z,26.45
2022-08-05T14:48:03.916Z,26.09
2022-08-05T14:52:12.288Z,25.54
2022-08-05T14:53:12.085Z,25.85
2022-08-05T14:54:28.160Z,26.48
2022-08-05T14:55:15.424Z,26.99
2022-08-05T14:56:12.026Z,26.69
2022-08-05T14:57:13.563Z,27.06
2022-08-05T14:58:13.855Z,26.94
2022-08-05T14:59:12.720Z,27.46
2022-08-05T15:00:11.998Z,27.77
2022-08-05T15:01:16.163Z,27.29
2022-08-05T15:02:15.809Z,26.99
2022-08-05T15:03:11.972Z,26.82
2022-08-05T15:04:11.956Z,26.54
2022-08-05T15:38:33.130Z,23.78
2022-08-05T15:40:59.098Z,24.37
2022-08-05T15:41:03.535Z,24.15
2022-08-05T16:44:54.313Z,23.75
2022-08-05T16:46:06.669Z,24.55
2022-08-05T16:46:55.985Z,25.18
